sensor_id;sensor_type;location;lat;lon;timestamp;pressure;altitude;pressure_sealevel;temperature;humidity
69842;BME280;57138;51.326;-0.068;2024-03-25T00:01:38;98985.69;;;5.49;87.73
69842;BME280;57138;51.326;-0.068;2024-03-25T00:04:04;98979.66;;;5.55;87.67
69842;BME280;57138;51.326;-0.068;2024-03-25T00:06:29;98974.97;;;5.57;87.65
69842;BME280;57138;51.326;-0.068;2024-03-25T00:09:01;98974.72;;;5.52;88.09
69842;BME280;57138;51.326;-0.068;2024-03-25T00:11:27;98973.06;;;5.51;88.65
69842;BME280;57138;51.326;-0.068;2024-03-25T00:13:53;98956.72;;;5.47;88.42
69842;BME280;57138;51.326;-0.068;2024-03-25T00:16:18;98951.22;;;5.49;89.05
69842;BME280;57138;51.326;-0.068;2024-03-25T00:18:43;98948.22;;;5.52;88.78
69842;BME280;57138;51.326;-0.068;2024-03-25T00:21:09;98952.09;;;5.56;88.63
69842;BME280;57138;51.326;-0.068;2024-03-25T00:23:34;98947.94;;;5.47;88.40
69842;BME280;57138;51.326;-0.068;2024-03-25T00:25:59;98946.94;;;5.48;89.67
69842;BME280;57138;51.326;-0.068;2024-03-25T00:28:25;98929.38;;;5.47;89.21
69842;BME280;57138;51.326;-0.068;2024-03-25T00:30:50;98939.22;;;5.53;89.38
69842;BME280;57138;51.326;-0.068;2024-03-25T00:33:16;98935.56;;;5.54;89.58
69842;BME280;57138;51.326;-0.068;2024-03-25T00:35:42;98930.66;;;5.51;89.22
69842;BME280;57138;51.326;-0.068;2024-03-25T00:38:08;98917.91;;;5.61;89.54
69842;BME280;57138;51.326;-0.068;2024-03-25T00:40:34;98911.97;;;5.59;89.15
69842;BME280;57138;51.326;-0.068;2024-03-25T00:42:59;98913.19;;;5.56;90.04
69842;BME280;57138;51.326;-0.068;2024-03-25T00:45:25;98913.09;;;5.50;89.54
69842;BME280;57138;51.326;-0.068;2024-03-25T00:47:58;98915.38;;;5.53;90.24
69842;BME280;57138;51.326;-0.068;2024-03-25T00:50:25;98904.13;;;5.51;90.15
69842;BME280;57138;51.326;-0.068;2024-03-25T00:52:50;98892.16;;;5.55;90.03
69842;BME280;57138;51.326;-0.068;2024-03-25T00:55:16;98907.50;;;5.60;89.90
69842;BME280;57138;51.326;-0.068;2024-03-25T00:57:41;98898.09;;;5.57;89.26
69842;BME280;57138;51.326;-0.068;2024-03-25T01:00:07;98890.69;;;5.52;89.90
69842;BME280;57138;51.326;-0.068;2024-03-25T01:02:33;98888.66;;;5.54;90.08
69842;BME280;57138;51.326;-0.068;2024-03-25T01:04:58;98889.50;;;5.55;90.31
69842;BME280;57138;51.326;-0.068;2024-03-25T01:07:25;98881.56;;;5.55;90.60
69842;BME280;57138;51.326;-0.068;2024-03-25T01:09:50;98874.84;;;5.59;90.14
69842;BME280;57138;51.326;-0.068;2024-03-25T01:12:16;98873.47;;;5.63;90.04
69842;BME280;57138;51.326;-0.068;2024-03-25T01:14:41;98876.75;;;5.65;89.94
69842;BME280;57138;51.326;-0.068;2024-03-25T01:17:06;98861.66;;;5.66;89.78
69842;BME280;57138;51.326;-0.068;2024-03-25T01:19:32;98863.47;;;5.65;90.57
69842;BME280;57138;51.326;-0.068;2024-03-25T01:21:57;98867.16;;;5.64;90.21
69842;BME280;57138;51.326;-0.068;2024-03-25T01:24:23;98853.72;;;5.66;90.45
69842;BME280;57138;51.326;-0.068;2024-03-25T01:26:49;98856.56;;;5.64;90.34
69842;BME280;57138;51.326;-0.068;2024-03-25T01:29:14;98854.94;;;5.70;90.20
69842;BME280;57138;51.326;-0.068;2024-03-25T01:31:39;98856.03;;;5.75;90.00
69842;BME280;57138;51.326;-0.068;2024-03-25T01:34:05;98851.34;;;5.78;89.89
69842;BME280;57138;51.326;-0.068;2024-03-25T01:36:31;98841.13;;;5.74;90.23
69842;BME280;57138;51.326;-0.068;2024-03-25T01:38:56;98852.56;;;5.75;89.83
69842;BME280;57138;51.326;-0.068;2024-03-25T01:41:22;98849.59;;;5.63;90.05
69842;BME280;57138;51.326;-0.068;2024-03-25T01:43:52;98844.69;;;5.60;90.80
69842;BME280;57138;51.326;-0.068;2024-03-25T01:46:18;98845.19;;;5.49;91.36
69842;BME280;57138;51.326;-0.068;2024-03-25T01:48:44;98852.31;;;5.48;91.45
69842;BME280;57138;51.326;-0.068;2024-03-25T01:51:11;98849.03;;;5.46;91.03
69842;BME280;57138;51.326;-0.068;2024-03-25T01:53:38;98824.75;;;5.43;91.27
69842;BME280;57138;51.326;-0.068;2024-03-25T01:56:04;98819.25;;;5.44;91.02
69842;BME280;57138;51.326;-0.068;2024-03-25T01:58:30;98816.03;;;5.49;91.48
69842;BME280;57138;51.326;-0.068;2024-03-25T02:00:58;98819.16;;;5.59;90.61
69842;BME280;57138;51.326;-0.068;2024-03-25T02:03:27;98816.28;;;5.54;90.50
69842;BME280;57138;51.326;-0.068;2024-03-25T02:05:55;98814.38;;;5.48;91.11
69842;BME280;57138;51.326;-0.068;2024-03-25T02:08:22;98808.19;;;5.40;91.02
69842;BME280;57138;51.326;-0.068;2024-03-25T02:10:48;98805.53;;;5.40;91.14
69842;BME280;57138;51.326;-0.068;2024-03-25T02:13:14;98794.31;;;5.38;91.65
69842;BME280;57138;51.326;-0.068;2024-03-25T02:15:41;98784.72;;;5.37;91.39
69842;BME280;57138;51.326;-0.068;2024-03-25T02:18:06;98789.75;;;5.32;91.55
69842;BME280;57138;51.326;-0.068;2024-03-25T02:20:31;98786.50;;;5.30;91.86
69842;BME280;57138;51.326;-0.068;2024-03-25T02:22:57;98778.50;;;5.24;91.79
69842;BME280;57138;51.326;-0.068;2024-03-25T02:25:23;98784.84;;;5.29;91.78
69842;BME280;57138;51.326;-0.068;2024-03-25T02:27:49;98779.13;;;5.26;92.23
69842;BME280;57138;51.326;-0.068;2024-03-25T02:30:14;98787.25;;;5.24;92.07
69842;BME280;57138;51.326;-0.068;2024-03-25T02:32:41;98784.41;;;5.26;92.09
69842;BME280;57138;51.326;-0.068;2024-03-25T02:35:15;98778.31;;;5.25;92.44
69842;BME280;57138;51.326;-0.068;2024-03-25T02:37:42;98773.81;;;5.26;92.54
69842;BME280;57138;51.326;-0.068;2024-03-25T02:40:08;98774.25;;;5.29;91.55
69842;BME280;57138;51.326;-0.068;2024-03-25T02:42:36;98753.03;;;5.29;91.39
69842;BME280;57138;51.326;-0.068;2024-03-25T02:45:02;98759.63;;;5.33;91.50
69842;BME280;57138;51.326;-0.068;2024-03-25T02:47:27;98756.31;;;5.31;91.84
69842;BME280;57138;51.326;-0.068;2024-03-25T02:49:53;98737.09;;;5.22;91.37
69842;BME280;57138;51.326;-0.068;2024-03-25T02:52:19;98737.56;;;5.33;91.34
69842;BME280;57138;51.326;-0.068;2024-03-25T02:54:45;98731.84;;;5.29;91.68
69842;BME280;57138;51.326;-0.068;2024-03-25T02:57:11;98738.78;;;5.30;91.51
69842;BME280;57138;51.326;-0.068;2024-03-25T02:59:36;98723.75;;;5.37;91.08
69842;BME280;57138;51.326;-0.068;2024-03-25T03:02:02;98721.66;;;5.33;91.42
69842;BME280;57138;51.326;-0.068;2024-03-25T03:04:27;98714.75;;;5.32;91.57
69842;BME280;57138;51.326;-0.068;2024-03-25T03:06:52;98722.50;;;5.33;92.04
69842;BME280;57138;51.326;-0.068;2024-03-25T03:09:18;98705.53;;;5.28;91.52
69842;BME280;57138;51.326;-0.068;2024-03-25T03:11:43;98712.16;;;5.38;91.17
69842;BME280;57138;51.326;-0.068;2024-03-25T03:14:09;98706.31;;;5.50;90.50
69842;BME280;57138;51.326;-0.068;2024-03-25T03:16:34;98704.69;;;5.49;90.60
69842;BME280;57138;51.326;-0.068;2024-03-25T03:19:00;98705.06;;;5.46;91.14
69842;BME280;57138;51.326;-0.068;2024-03-25T03:21:26;98701.78;;;5.44;91.27
69842;BME280;57138;51.326;-0.068;2024-03-25T03:23:51;98694.97;;;5.34;91.48
69842;BME280;57138;51.326;-0.068;2024-03-25T03:26:16;98696.38;;;5.30;91.86
69842;BME280;57138;51.326;-0.068;2024-03-25T03:28:42;98687.19;;;5.26;92.23
69842;BME280;57138;51.326;-0.068;2024-03-25T03:31:07;98686.94;;;5.21;92.53
69842;BME280;57138;51.326;-0.068;2024-03-25T03:33:33;98690.94;;;5.38;92.58
69842;BME280;57138;51.326;-0.068;2024-03-25T03:35:58;98688.28;;;5.38;93.28
69842;BME280;57138;51.326;-0.068;2024-03-25T03:38:24;98683.81;;;5.39;94.04
69842;BME280;57138;51.326;-0.068;2024-03-25T03:40:59;98679.19;;;5.48;93.75
69842;BME280;57138;51.326;-0.068;2024-03-25T03:43:24;98674.47;;;5.43;94.07
69842;BME280;57138;51.326;-0.068;2024-03-25T03:45:50;98673.50;;;5.51;94.21
69842;BME280;57138;51.326;-0.068;2024-03-25T03:48:15;98670.69;;;5.59;95.01
69842;BME280;57138;51.326;-0.068;2024-03-25T03:50:42;98667.19;;;5.52;96.40
69842;BME280;57138;51.326;-0.068;2024-03-25T03:53:11;98660.72;;;5.61;96.03
69842;BME280;57138;51.326;-0.068;2024-03-25T03:55:39;98651.66;;;5.49;97.06
69842;BME280;57138;51.326;-0.068;2024-03-25T03:58:04;98643.06;;;5.47;97.42
69842;BME280;57138;51.326;-0.068;2024-03-25T04:00:33;98645.59;;;5.55;97.13
69842;BME280;57138;51.326;-0.068;2024-03-25T04:02:59;98648.06;;;5.63;97.18
69842;BME280;57138;51.326;-0.068;2024-03-25T04:05:28;98640.31;;;5.62;97.13
69842;BME280;57138;51.326;-0.068;2024-03-25T04:07:54;98649.09;;;5.62;98.02
69842;BME280;57138;51.326;-0.068;2024-03-25T04:10:19;98642.56;;;5.58;99.21
69842;BME280;57138;51.326;-0.068;2024-03-25T04:12:44;98639.50;;;5.61;98.84
69842;BME280;57138;51.326;-0.068;2024-03-25T04:15:10;98644.03;;;5.67;99.25
69842;BME280;57138;51.326;-0.068;2024-03-25T04:17:45;98639.13;;;5.64;99.20
69842;BME280;57138;51.326;-0.068;2024-03-25T04:20:12;98628.53;;;5.64;99.27
69842;BME280;57138;51.326;-0.068;2024-03-25T04:22:44;98620.56;;;5.64;99.91
69842;BME280;57138;51.326;-0.068;2024-03-25T04:25:10;98621.78;;;5.68;99.77
69842;BME280;57138;51.326;-0.068;2024-03-25T04:27:42;98621.78;;;5.68;100.00
69842;BME280;57138;51.326;-0.068;2024-03-25T04:30:08;98620.38;;;5.66;99.74
69842;BME280;57138;51.326;-0.068;2024-03-25T04:32:35;98612.81;;;5.69;100.00
69842;BME280;57138;51.326;-0.068;2024-03-25T04:35:01;98618.34;;;5.74;100.00
69842;BME280;57138;51.326;-0.068;2024-03-25T04:37:27;98607.97;;;5.80;100.00
69842;BME280;57138;51.326;-0.068;2024-03-25T04:39:53;98612.69;;;5.84;100.00
69842;BME280;57138;51.326;-0.068;2024-03-25T04:42:19;98604.31;;;5.81;100.00
69842;BME280;57138;51.326;-0.068;2024-03-25T04:44:44;98608.81;;;5.87;100.00
69842;BME280;57138;51.326;-0.068;2024-03-25T04:47:10;98599.59;;;5.76;100.00
69842;BME280;57138;51.326;-0.068;2024-03-25T04:49:35;98597.59;;;5.78;100.00
69842;BME280;57138;51.326;-0.068;2024-03-25T04:52:01;98603.31;;;5.88;100.00
69842;BME280;57138;51.326;-0.068;2024-03-25T04:54:28;98604.56;;;5.92;100.00
69842;BME280;57138;51.326;-0.068;2024-03-25T04:56:53;98602.13;;;5.91;100.00
69842;BME280;57138;51.326;-0.068;2024-03-25T04:59:19;98596.34;;;5.81;100.00
69842;BME280;57138;51.326;-0.068;2024-03-25T05:01:44;98604.53;;;5.86;100.00
69842;BME280;57138;51.326;-0.068;2024-03-25T05:04:10;98599.66;;;5.89;100.00
69842;BME280;57138;51.326;-0.068;2024-03-25T05:06:35;98602.13;;;5.91;100.00
69842;BME280;57138;51.326;-0.068;2024-03-25T05:09:01;98591.91;;;5.88;100.00
69842;BME280;57138;51.326;-0.068;2024-03-25T05:11:27;98590.28;;;5.93;100.00
69842;BME280;57138;51.326;-0.068;2024-03-25T05:13:52;98572.09;;;5.84;100.00
69842;BME280;57138;51.326;-0.068;2024-03-25T05:16:17;98576.81;;;5.95;100.00
69842;BME280;57138;51.326;-0.068;2024-03-25T05:18:43;98584.94;;;5.87;100.00
69842;BME280;57138;51.326;-0.068;2024-03-25T05:21:08;98574.75;;;5.84;100.00
69842;BME280;57138;51.326;-0.068;2024-03-25T05:23:34;98583.31;;;5.86;100.00
69842;BME280;57138;51.326;-0.068;2024-03-25T05:25:59;98570.88;;;5.86;100.00
69842;BME280;57138;51.326;-0.068;2024-03-25T05:28:25;98578.00;;;5.86;100.00
69842;BME280;57138;51.326;-0.068;2024-03-25T05:30:50;98569.44;;;5.84;100.00
69842;BME280;57138;51.326;-0.068;2024-03-25T05:33:15;98567.38;;;5.86;100.00
69842;BME280;57138;51.326;-0.068;2024-03-25T05:35:41;98566.59;;;5.92;100.00
69842;BME280;57138;51.326;-0.068;2024-03-25T05:38:06;98550.28;;;5.88;100.00
69842;BME280;57138;51.326;-0.068;2024-03-25T05:40:32;98558.44;;;5.93;100.00
69842;BME280;57138;51.326;-0.068;2024-03-25T05:42:58;98552.72;;;5.90;100.00
69842;BME280;57138;51.326;-0.068;2024-03-25T05:45:23;98551.50;;;5.92;100.00
69842;BME280;57138;51.326;-0.068;2024-03-25T05:47:50;98556.47;;;6.02;100.00
69842;BME280;57138;51.326;-0.068;2024-03-25T05:50:16;98556.06;;;6.05;100.00
69842;BME280;57138;51.326;-0.068;2024-03-25T05:52:42;98553.81;;;6.02;100.00
69842;BME280;57138;51.326;-0.068;2024-03-25T05:55:07;98552.81;;;6.03;100.00
69842;BME280;57138;51.326;-0.068;2024-03-25T05:57:35;98553.41;;;6.05;100.00
69842;BME280;57138;51.326;-0.068;2024-03-25T06:00:00;98543.00;;;6.04;100.00
69842;BME280;57138;51.326;-0.068;2024-03-25T06:02:26;98543.44;;;6.14;100.00
69842;BME280;57138;51.326;-0.068;2024-03-25T06:04:51;98547.31;;;6.11;100.00
69842;BME280;57138;51.326;-0.068;2024-03-25T06:07:17;98547.31;;;6.18;100.00
69842;BME280;57138;51.326;-0.068;2024-03-25T06:09:42;98529.78;;;6.17;100.00
69842;BME280;57138;51.326;-0.068;2024-03-25T06:12:07;98543.03;;;6.17;100.00
69842;BME280;57138;51.326;-0.068;2024-03-25T06:14:33;98537.34;;;6.20;100.00
69842;BME280;57138;51.326;-0.068;2024-03-25T06:16:59;98536.72;;;6.25;100.00
69842;BME280;57138;51.326;-0.068;2024-03-25T06:19:24;98527.94;;;6.18;100.00
69842;BME280;57138;51.326;-0.068;2024-03-25T06:21:49;98527.94;;;6.18;100.00
69842;BME280;57138;51.326;-0.068;2024-03-25T06:24:15;98526.72;;;6.27;100.00
69842;BME280;57138;51.326;-0.068;2024-03-25T06:26:40;98516.31;;;6.32;100.00
69842;BME280;57138;51.326;-0.068;2024-03-25T06:29:06;98516.50;;;6.24;100.00
69842;BME280;57138;51.326;-0.068;2024-03-25T06:31:31;98531.22;;;6.26;100.00
69842;BME280;57138;51.326;-0.068;2024-03-25T06:34:15;98516.50;;;6.24;100.00
69842;BME280;57138;51.326;-0.068;2024-03-25T06:36:44;98516.09;;;6.27;100.00
69842;BME280;57138;51.326;-0.068;2024-03-25T06:39:10;98509.59;;;6.29;100.00
69842;BME280;57138;51.326;-0.068;2024-03-25T06:41:35;98501.41;;;6.31;100.00
69842;BME280;57138;51.326;-0.068;2024-03-25T06:44:01;98511.41;;;6.42;100.00
69842;BME280;57138;51.326;-0.068;2024-03-25T06:46:26;98504.66;;;6.40;100.00
69842;BME280;57138;51.326;-0.068;2024-03-25T06:48:52;98496.09;;;6.38;100.00
69842;BME280;57138;51.326;-0.068;2024-03-25T06:51:17;98480.56;;;6.41;100.00
69842;BME280;57138;51.326;-0.068;2024-03-25T06:53:43;98489.97;;;6.44;100.00
69842;BME280;57138;51.326;-0.068;2024-03-25T06:56:08;98483.03;;;6.56;100.00
69842;BME280;57138;51.326;-0.068;2024-03-25T06:58:34;98483.66;;;6.52;100.00
69842;BME280;57138;51.326;-0.068;2024-03-25T07:01:07;98474.88;;;6.58;100.00
69842;BME280;57138;51.326;-0.068;2024-03-25T07:03:33;98481.19;;;6.50;100.00
69842;BME280;57138;51.326;-0.068;2024-03-25T07:05:59;98476.47;;;6.59;100.00
69842;BME280;57138;51.326;-0.068;2024-03-25T07:08:28;98473.00;;;6.58;100.00
69842;BME280;57138;51.326;-0.068;2024-03-25T07:10:55;98467.50;;;6.60;100.00
69842;BME280;57138;51.326;-0.068;2024-03-25T07:13:21;98480.97;;;6.65;100.00
69842;BME280;57138;51.326;-0.068;2024-03-25T07:15:47;98473.63;;;6.67;100.00
69842;BME280;57138;51.326;-0.068;2024-03-25T07:18:12;98469.94;;;6.68;100.00
69842;BME280;57138;51.326;-0.068;2024-03-25T07:20:42;98467.50;;;6.73;100.00
69842;BME280;57138;51.326;-0.068;2024-03-25T07:23:08;98484.22;;;6.80;100.00
69842;BME280;57138;51.326;-0.068;2024-03-25T07:25:33;98489.75;;;6.79;100.00
69842;BME280;57138;51.326;-0.068;2024-03-25T07:27:59;98487.50;;;6.82;100.00
69842;BME280;57138;51.326;-0.068;2024-03-25T07:30:25;98489.94;;;6.91;100.00
69842;BME280;57138;51.326;-0.068;2024-03-25T07:32:57;98482.59;;;6.79;100.00
69842;BME280;57138;51.326;-0.068;2024-03-25T07:35:23;98477.25;;;6.93;100.00
69842;BME280;57138;51.326;-0.068;2024-03-25T07:37:49;98469.09;;;6.88;100.00
69842;BME280;57138;51.326;-0.068;2024-03-25T07:40:21;98474.59;;;6.93;100.00
69842;BME280;57138;51.326;-0.068;2024-03-25T07:42:48;98472.75;;;7.00;100.00
69842;BME280;57138;51.326;-0.068;2024-03-25T07:45:14;98472.94;;;7.05;100.00
69842;BME280;57138;51.326;-0.068;2024-03-25T07:47:39;98456.41;;;6.90;100.00
69842;BME280;57138;51.326;-0.068;2024-03-25T07:50:05;98452.53;;;6.86;100.00
69842;BME280;57138;51.326;-0.068;2024-03-25T07:52:31;98446.38;;;6.92;100.00
69842;BME280;57138;51.326;-0.068;2024-03-25T07:54:57;98447.41;;;6.97;100.00
69842;BME280;57138;51.326;-0.068;2024-03-25T07:57:22;98432.69;;;7.01;100.00
69842;BME280;57138;51.326;-0.068;2024-03-25T07:59:48;98450.03;;;7.11;100.00
69842;BME280;57138;51.326;-0.068;2024-03-25T08:02:14;98455.91;;;7.19;100.00
69842;BME280;57138;51.326;-0.068;2024-03-25T08:04:40;98442.78;;;7.31;100.00
69842;BME280;57138;51.326;-0.068;2024-03-25T08:07:05;98452.75;;;7.43;100.00
69842;BME280;57138;51.326;-0.068;2024-03-25T08:09:31;98450.47;;;7.46;100.00
69842;BME280;57138;51.326;-0.068;2024-03-25T08:11:56;98441.22;;;7.55;100.00
69842;BME280;57138;51.326;-0.068;2024-03-25T08:14:22;98449.84;;;7.58;100.00
69842;BME280;57138;51.326;-0.068;2024-03-25T08:16:48;98448.56;;;7.60;100.00
69842;BME280;57138;51.326;-0.068;2024-03-25T08:19:13;98446.31;;;7.64;100.00
69842;BME280;57138;51.326;-0.068;2024-03-25T08:21:39;98435.63;;;7.70;100.00
69842;BME280;57138;51.326;-0.068;2024-03-25T08:24:05;98436.84;;;7.74;100.00
69842;BME280;57138;51.326;-0.068;2024-03-25T08:26:31;98413.72;;;7.75;98.52
69842;BME280;57138;51.326;-0.068;2024-03-25T08:28:56;98421.88;;;7.80;97.66
69842;BME280;57138;51.326;-0.068;2024-03-25T08:31:22;98406.72;;;7.81;97.48
69842;BME280;57138;51.326;-0.068;2024-03-25T08:33:47;98431.59;;;7.93;96.06
69842;BME280;57138;51.326;-0.068;2024-03-25T08:36:14;98407.69;;;7.86;95.81
69842;BME280;57138;51.326;-0.068;2024-03-25T08:38:39;98396.91;;;7.81;94.31
69842;BME280;57138;51.326;-0.068;2024-03-25T08:41:05;98412.22;;;7.86;93.60
69842;BME280;57138;51.326;-0.068;2024-03-25T08:43:30;98408.91;;;7.90;92.33
69842;BME280;57138;51.326;-0.068;2024-03-25T08:45:56;98408.41;;;8.00;91.63
69842;BME280;57138;51.326;-0.068;2024-03-25T08:48:25;98409.91;;;8.21;91.19
69842;BME280;57138;51.326;-0.068;2024-03-25T08:50:50;98402.88;;;8.27;90.56
69842;BME280;57138;51.326;-0.068;2024-03-25T08:53:16;98390.19;;;8.29;89.12
69842;BME280;57138;51.326;-0.068;2024-03-25T08:55:48;98388.47;;;8.35;87.63
69842;BME280;57138;51.326;-0.068;2024-03-25T08:58:14;98385.34;;;8.19;87.89
69842;BME280;57138;51.326;-0.068;2024-03-25T09:00:40;98388.06;;;8.13;88.25
69842;BME280;57138;51.326;-0.068;2024-03-25T09:03:05;98388.00;;;8.19;87.74
69842;BME280;57138;51.326;-0.068;2024-03-25T09:05:31;98389.84;;;8.19;87.86
69842;BME280;57138;51.326;-0.068;2024-03-25T09:07:56;98375.72;;;8.18;87.70
69842;BME280;57138;51.326;-0.068;2024-03-25T09:10:24;98385.59;;;8.36;86.64
69842;BME280;57138;51.326;-0.068;2024-03-25T09:13:08;98394.25;;;8.32;87.36
69842;BME280;57138;51.326;-0.068;2024-03-25T09:15:33;98384.84;;;8.29;85.72
69842;BME280;57138;51.326;-0.068;2024-03-25T09:17:59;98378.31;;;8.25;86.38
69842;BME280;57138;51.326;-0.068;2024-03-25T09:20:25;98387.31;;;8.31;85.20
69842;BME280;57138;51.326;-0.068;2024-03-25T09:22:51;98381.09;;;8.37;85.52
69842;BME280;57138;51.326;-0.068;2024-03-25T09:25:17;98382.84;;;8.24;84.83
69842;BME280;57138;51.326;-0.068;2024-03-25T09:27:47;98386.69;;;8.28;84.80
69842;BME280;57138;51.326;-0.068;2024-03-25T09:30:13;98383.91;;;8.42;84.30
69842;BME280;57138;51.326;-0.068;2024-03-25T09:32:40;98382.22;;;8.48;84.34
69842;BME280;57138;51.326;-0.068;2024-03-25T09:35:06;98377.88;;;8.53;80.83
69842;BME280;57138;51.326;-0.068;2024-03-25T09:37:32;98377.53;;;8.43;80.59
69842;BME280;57138;51.326;-0.068;2024-03-25T09:39:57;98364.69;;;8.40;80.75
69842;BME280;57138;51.326;-0.068;2024-03-25T09:42:28;98367.09;;;8.48;80.38
69842;BME280;57138;51.326;-0.068;2024-03-25T09:44:58;98362.03;;;8.40;80.91
69842;BME280;57138;51.326;-0.068;2024-03-25T09:47:25;98357.69;;;8.45;80.84
69842;BME280;57138;51.326;-0.068;2024-03-25T09:49:54;98366.28;;;8.41;80.30
69842;BME280;57138;51.326;-0.068;2024-03-25T09:52:19;98368.25;;;8.52;80.68
69842;BME280;57138;51.326;-0.068;2024-03-25T09:54:45;98354.22;;;8.45;81.58
69842;BME280;57138;51.326;-0.068;2024-03-25T09:57:11;98356.44;;;8.48;81.46
69842;BME280;57138;51.326;-0.068;2024-03-25T09:59:37;98353.03;;;8.59;81.45
69842;BME280;57138;51.326;-0.068;2024-03-25T10:02:03;98348.06;;;8.63;81.35
69842;BME280;57138;51.326;-0.068;2024-03-25T10:04:29;98338.38;;;8.50;81.96
69842;BME280;57138;51.326;-0.068;2024-03-25T10:06:55;98332.59;;;8.53;80.92
69842;BME280;57138;51.326;-0.068;2024-03-25T10:09:21;98342.50;;;8.64;81.16
69842;BME280;57138;51.326;-0.068;2024-03-25T10:11:48;98347.25;;;8.62;81.51
69842;BME280;57138;51.326;-0.068;2024-03-25T10:14:17;98345.47;;;8.75;81.42
69842;BME280;57138;51.326;-0.068;2024-03-25T10:16:48;98347.13;;;8.76;80.30
69842;BME280;57138;51.326;-0.068;2024-03-25T10:19:14;98338.81;;;8.84;79.91
69842;BME280;57138;51.326;-0.068;2024-03-25T10:21:40;98340.38;;;8.92;79.64
69842;BME280;57138;51.326;-0.068;2024-03-25T10:24:05;98343.41;;;8.77;80.21
69842;BME280;57138;51.326;-0.068;2024-03-25T10:26:32;98336.59;;;8.81;79.69
69842;BME280;57138;51.326;-0.068;2024-03-25T10:29:02;98333.84;;;8.88;79.79
69842;BME280;57138;51.326;-0.068;2024-03-25T10:31:30;98330.50;;;8.92;80.56
69842;BME280;57138;51.326;-0.068;2024-03-25T10:33:55;98339.13;;;8.94;79.88
69842;BME280;57138;51.326;-0.068;2024-03-25T10:36:22;98326.38;;;8.96;79.57
69842;BME280;57138;51.326;-0.068;2024-03-25T10:38:57;98328.34;;;9.01;79.39
69842;BME280;57138;51.326;-0.068;2024-03-25T10:41:23;98329.91;;;9.09;78.39
69842;BME280;57138;51.326;-0.068;2024-03-25T10:43:51;98331.91;;;9.13;79.22
69842;BME280;57138;51.326;-0.068;2024-03-25T10:46:19;98330.16;;;9.19;78.53
69842;BME280;57138;51.326;-0.068;2024-03-25T10:48:54;98326.91;;;9.17;76.90
69842;BME280;57138;51.326;-0.068;2024-03-25T10:51:21;98312.41;;;9.13;77.64
69842;BME280;57138;51.326;-0.068;2024-03-25T10:53:51;98319.88;;;9.23;77.56
69842;BME280;57138;51.326;-0.068;2024-03-25T10:56:21;98311.19;;;9.27;76.62
69842;BME280;57138;51.326;-0.068;2024-03-25T10:58:48;98307.47;;;9.28;77.34
69842;BME280;57138;51.326;-0.068;2024-03-25T11:01:15;98300.06;;;9.30;77.41
69842;BME280;57138;51.326;-0.068;2024-03-25T11:03:42;98291.75;;;9.39;76.92
69842;BME280;57138;51.326;-0.068;2024-03-25T11:06:07;98299.66;;;9.57;77.16
69842;BME280;57138;51.326;-0.068;2024-03-25T11:08:33;98295.81;;;9.41;77.50
69842;BME280;57138;51.326;-0.068;2024-03-25T11:10:59;98287.63;;;9.66;76.29
69842;BME280;57138;51.326;-0.068;2024-03-25T11:13:26;98286.19;;;9.52;75.74
69842;BME280;57138;51.326;-0.068;2024-03-25T11:15:52;98298.81;;;9.45;75.89
69842;BME280;57138;51.326;-0.068;2024-03-25T11:18:22;98278.91;;;9.47;76.39
69842;BME280;57138;51.326;-0.068;2024-03-25T11:21:26;98279.38;;;9.68;76.87
69842;BME280;57138;51.326;-0.068;2024-03-25T11:23:51;98268.59;;;9.75;77.60
69842;BME280;57138;51.326;-0.068;2024-03-25T11:26:20;98275.09;;;9.79;76.39
69842;BME280;57138;51.326;-0.068;2024-03-25T11:28:47;98272.09;;;9.87;76.72
69842;BME280;57138;51.326;-0.068;2024-03-25T11:31:13;98266.03;;;10.03;75.33
69842;BME280;57138;51.326;-0.068;2024-03-25T11:33:39;98271.03;;;10.00;74.78
69842;BME280;57138;51.326;-0.068;2024-03-25T11:36:05;98265.34;;;9.96;73.79
69842;BME280;57138;51.326;-0.068;2024-03-25T11:38:31;98257.56;;;10.06;73.05
69842;BME280;57138;51.326;-0.068;2024-03-25T11:40:56;98251.75;;;10.10;73.38
69842;BME280;57138;51.326;-0.068;2024-03-25T11:43:23;98257.81;;;9.93;73.28
69842;BME280;57138;51.326;-0.068;2024-03-25T11:45:49;98248.31;;;9.97;73.72
69842;BME280;57138;51.326;-0.068;2024-03-25T11:48:18;98238.88;;;10.06;73.50
69842;BME280;57138;51.326;-0.068;2024-03-25T11:50:45;98244.53;;;10.22;74.55
69842;BME280;57138;51.326;-0.068;2024-03-25T11:53:13;98232.69;;;10.41;73.27
69842;BME280;57138;51.326;-0.068;2024-03-25T11:55:39;98228.03;;;10.49;73.22
69842;BME280;57138;51.326;-0.068;2024-03-25T11:58:05;98219.56;;;10.52;72.83
69842;BME280;57138;51.326;-0.068;2024-03-25T12:00:30;98214.22;;;10.52;72.95
69842;BME280;57138;51.326;-0.068;2024-03-25T12:02:56;98207.22;;;10.51;73.05
69842;BME280;57138;51.326;-0.068;2024-03-25T12:05:22;98213.72;;;10.55;74.18
69842;BME280;57138;51.326;-0.068;2024-03-25T12:07:47;98193.31;;;10.49;73.31
69842;BME280;57138;51.326;-0.068;2024-03-25T12:10:15;98197.81;;;10.48;72.89
69842;BME280;57138;51.326;-0.068;2024-03-25T12:12:58;98191.47;;;10.37;73.21
69842;BME280;57138;51.326;-0.068;2024-03-25T12:15:24;98193.09;;;10.38;73.31
69842;BME280;57138;51.326;-0.068;2024-03-25T12:17:50;98192.06;;;10.39;73.06
69842;BME280;57138;51.326;-0.068;2024-03-25T12:20:16;98184.03;;;10.39;72.65
69842;BME280;57138;51.326;-0.068;2024-03-25T12:22:43;98177.16;;;10.43;72.89
69842;BME280;57138;51.326;-0.068;2024-03-25T12:25:09;98174.00;;;10.47;72.49
69842;BME280;57138;51.326;-0.068;2024-03-25T12:27:37;98174.69;;;10.54;72.46
69842;BME280;57138;51.326;-0.068;2024-03-25T12:30:08;98175.81;;;10.58;72.19
69842;BME280;57138;51.326;-0.068;2024-03-25T12:32:37;98170.69;;;10.68;71.76
69842;BME280;57138;51.326;-0.068;2024-03-25T12:35:07;98159.81;;;10.75;71.54
69842;BME280;57138;51.326;-0.068;2024-03-25T12:37:33;98144.69;;;10.81;70.43
69842;BME280;57138;51.326;-0.068;2024-03-25T12:39:58;98153.72;;;10.91;70.11
69842;BME280;57138;51.326;-0.068;2024-03-25T12:42:25;98150.31;;;10.96;69.83
69842;BME280;57138;51.326;-0.068;2024-03-25T12:44:54;98148.19;;;10.98;69.45
69842;BME280;57138;51.326;-0.068;2024-03-25T12:47:19;98137.50;;;10.98;70.03
69842;BME280;57138;51.326;-0.068;2024-03-25T12:49:45;98137.03;;;11.01;71.07
69842;BME280;57138;51.326;-0.068;2024-03-25T12:52:11;98140.03;;;11.05;69.52